sensor_id;sensor_type;location;lat;lon;timestamp;P1;durP1;ratioP1;P2;durP2;ratioP2
5040;SDS011;2539;52.568;13.364;2023-06-22T00:00:54;13.60;;;9.67;;
5040;SDS011;2539;52.568;13.364;2023-06-22T00:03:25;10.10;;;9.10;;
5040;SDS011;2539;52.568;13.364;2023-06-22T00:05:52;11.77;;;9.67;;
5040;SDS011;2539;52.568;13.364;2023-06-22T00:08:19;16.63;;;10.47;;
5040;SDS011;2539;52.568;13.364;2023-06-22T00:10:48;10.77;;;9.63;;
5040;SDS011;2539;52.568;13.364;2023-06-22T00:13:15;11.50;;;9.97;;
5040;SDS011;2539;52.568;13.364;2023-06-22T00:15:43;11.87;;;10.53;;
5040;SDS011;2539;52.568;13.364;2023-06-22T00:18:09;10.40;;;9.30;;
5040;SDS011;2539;52.568;13.364;2023-06-22T00:20:36;10.80;;;9.57;;
5040;SDS011;2539;52.568;13.364;2023-06-22T00:23:06;11.03;;;9.97;;
5040;SDS011;2539;52.568;13.364;2023-06-22T00:25:36;11.33;;;10.23;;
5040;SDS011;2539;52.568;13.364;2023-06-22T00:28:06;11.20;;;9.80;;
5040;SDS011;2539;52.568;13.364;2023-06-22T00:30:39;11.23;;;10.07;;
5040;SDS011;2539;52.568;13.364;2023-06-22T00:33:05;11.43;;;9.60;;
5040;SDS011;2539;52.568;13.364;2023-06-22T00:35:33;10.80;;;9.73;;
5040;SDS011;2539;52.568;13.364;2023-06-22T00:38:00;11.00;;;9.87;;
5040;SDS011;2539;52.568;13.364;2023-06-22T00:40:28;10.93;;;9.83;;
5040;SDS011;2539;52.568;13.364;2023-06-22T00:42:55;10.60;;;9.53;;
5040;SDS011;2539;52.568;13.364;2023-06-22T00:45:22;11.07;;;9.40;;
5040;SDS011;2539;52.568;13.364;2023-06-22T00:47:50;10.80;;;9.70;;
5040;SDS011;2539;52.568;13.364;2023-06-22T00:50:19;10.77;;;9.60;;
5040;SDS011;2539;52.568;13.364;2023-06-22T00:52:56;10.50;;;9.40;;
5040;SDS011;2539;52.568;13.364;2023-06-22T00:55:24;12.10;;;9.03;;
5040;SDS011;2539;52.568;13.364;2023-06-22T00:57:52;11.50;;;10.37;;
5040;SDS011;2539;52.568;13.364;2023-06-22T01:00:23;10.87;;;9.93;;
5040;SDS011;2539;52.568;13.364;2023-06-22T01:02:50;11.10;;;10.00;;
5040;SDS011;2539;52.568;13.364;2023-06-22T01:05:19;10.70;;;9.10;;
5040;SDS011;2539;52.568;13.364;2023-06-22T01:07:50;10.80;;;9.70;;
5040;SDS011;2539;52.568;13.364;2023-06-22T01:10:41;10.40;;;9.40;;
5040;SDS011;2539;52.568;13.364;2023-06-22T01:13:16;12.17;;;10.70;;
5040;SDS011;2539;52.568;13.364;2023-06-22T01:15:51;9.50;;;8.60;;
5040;SDS011;2539;52.568;13.364;2023-06-22T01:18:22;10.77;;;9.60;;
5040;SDS011;2539;52.568;13.364;2023-06-22T01:20:55;11.03;;;9.67;;
5040;SDS011;2539;52.568;13.364;2023-06-22T01:23:33;11.43;;;9.60;;
5040;SDS011;2539;52.568;13.364;2023-06-22T01:26:42;11.60;;;9.13;;
5040;SDS011;2539;52.568;13.364;2023-06-22T01:29:19;15.40;;;9.90;;
5040;SDS011;2539;52.568;13.364;2023-06-22T01:31:46;10.87;;;9.77;;
5040;SDS011;2539;52.568;13.364;2023-06-22T01:34:14;11.30;;;10.03;;
5040;SDS011;2539;52.568;13.364;2023-06-22T01:36:41;11.03;;;9.90;;
5040;SDS011;2539;52.568;13.364;2023-06-22T01:39:07;13.10;;;8.50;;
5040;SDS011;2539;52.568;13.364;2023-06-22T01:41:36;11.87;;;10.10;;
5040;SDS011;2539;52.568;13.364;2023-06-22T01:44:07;11.37;;;10.17;;
5040;SDS011;2539;52.568;13.364;2023-06-22T01:46:35;9.83;;;8.83;;
5040;SDS011;2539;52.568;13.364;2023-06-22T01:49:02;10.90;;;9.37;;
5040;SDS011;2539;52.568;13.364;2023-06-22T01:51:30;11.40;;;10.17;;
5040;SDS011;2539;52.568;13.364;2023-06-22T01:53:56;10.90;;;9.80;;
5040;SDS011;2539;52.568;13.364;2023-06-22T01:56:22;10.03;;;9.03;;
5040;SDS011;2539;52.568;13.364;2023-06-22T01:58:51;10.50;;;9.40;;
5040;SDS011;2539;52.568;13.364;2023-06-22T02:01:35;10.63;;;9.63;;
5040;SDS011;2539;52.568;13.364;2023-06-22T02:04:11;9.60;;;8.70;;
5040;SDS011;2539;52.568;13.364;2023-06-22T02:06:42;10.47;;;9.47;;
5040;SDS011;2539;52.568;13.364;2023-06-22T02:09:12;11.33;;;10.23;;
5040;SDS011;2539;52.568;13.364;2023-06-22T02:11:42;10.97;;;9.60;;
5040;SDS011;2539;52.568;13.364;2023-06-22T02:14:11;9.70;;;8.80;;
5040;SDS011;2539;52.568;13.364;2023-06-22T02:16:39;12.10;;;10.90;;
5040;SDS011;2539;52.568;13.364;2023-06-22T02:19:07;10.83;;;9.80;;
5040;SDS011;2539;52.568;13.364;2023-06-22T02:21:34;11.50;;;10.40;;
5040;SDS011;2539;52.568;13.364;2023-06-22T02:24:00;13.23;;;10.97;;
5040;SDS011;2539;52.568;13.364;2023-06-22T02:26:26;10.47;;;9.50;;
5040;SDS011;2539;52.568;13.364;2023-06-22T02:28:53;10.90;;;9.83;;
5040;SDS011;2539;52.568;13.364;2023-06-22T02:31:19;12.37;;;11.07;;
5040;SDS011;2539;52.568;13.364;2023-06-22T02:33:46;11.20;;;10.03;;
5040;SDS011;2539;52.568;13.364;2023-06-22T02:36:14;11.00;;;9.90;;
5040;SDS011;2539;52.568;13.364;2023-06-22T02:38:41;13.90;;;10.20;;
5040;SDS011;2539;52.568;13.364;2023-06-22T02:41:14;13.23;;;10.70;;
5040;SDS011;2539;52.568;13.364;2023-06-22T02:43:44;13.13;;;11.00;;
5040;SDS011;2539;52.568;13.364;2023-06-22T02:46:11;11.80;;;10.60;;
5040;SDS011;2539;52.568;13.364;2023-06-22T02:48:42;13.30;;;9.70;;
5040;SDS011;2539;52.568;13.364;2023-06-22T02:51:08;11.30;;;10.20;;
5040;SDS011;2539;52.568;13.364;2023-06-22T02:53:34;13.23;;;11.03;;
5040;SDS011;2539;52.568;13.364;2023-06-22T02:56:03;12.03;;;10.83;;
5040;SDS011;2539;52.568;13.364;2023-06-22T03:01:12;11.67;;;10.47;;
5040;SDS011;2539;52.568;13.364;2023-06-22T03:03:39;11.60;;;10.07;;
5040;SDS011;2539;52.568;13.364;2023-06-22T03:06:06;13.10;;;11.50;;
5040;SDS011;2539;52.568;13.364;2023-06-22T03:08:31;12.83;;;11.57;;
5040;SDS011;2539;52.568;13.364;2023-06-22T03:10:57;13.47;;;12.07;;
5040;SDS011;2539;52.568;13.364;2023-06-22T03:13:23;17.43;;;12.40;;
5040;SDS011;2539;52.568;13.364;2023-06-22T03:15:49;13.67;;;12.27;;
5040;SDS011;2539;52.568;13.364;2023-06-22T03:18:16;14.03;;;12.60;;
5040;SDS011;2539;52.568;13.364;2023-06-22T03:20:42;12.80;;;11.60;;
5040;SDS011;2539;52.568;13.364;2023-06-22T03:23:08;14.50;;;12.47;;
5040;SDS011;2539;52.568;13.364;2023-06-22T03:25:35;14.07;;;12.67;;
5040;SDS011;2539;52.568;13.364;2023-06-22T03:28:01;14.23;;;12.63;;
5040;SDS011;2539;52.568;13.364;2023-06-22T03:30:28;14.40;;;12.73;;
5040;SDS011;2539;52.568;13.364;2023-06-22T03:32:54;16.60;;;11.77;;
5040;SDS011;2539;52.568;13.364;2023-06-22T03:35:20;15.07;;;13.47;;
5040;SDS011;2539;52.568;13.364;2023-06-22T03:37:47;13.57;;;12.27;;
5040;SDS011;2539;52.568;13.364;2023-06-22T03:40:13;14.47;;;12.97;;
5040;SDS011;2539;52.568;13.364;2023-06-22T03:42:39;14.03;;;11.60;;
5040;SDS011;2539;52.568;13.364;2023-06-22T03:45:06;14.60;;;13.03;;
5040;SDS011;2539;52.568;13.364;2023-06-22T03:47:32;14.30;;;12.30;;
5040;SDS011;2539;52.568;13.364;2023-06-22T03:49:59;13.53;;;11.90;;
5040;SDS011;2539;52.568;13.364;2023-06-22T03:52:25;12.63;;;11.17;;
5040;SDS011;2539;52.568;13.364;2023-06-22T03:54:51;14.60;;;12.07;;
5040;SDS011;2539;52.568;13.364;2023-06-22T03:57:18;16.40;;;13.60;;
5040;SDS011;2539;52.568;13.364;2023-06-22T03:59:44;13.20;;;11.13;;
5040;SDS011;2539;52.568;13.364;2023-06-22T04:02:10;12.33;;;11.10;;
5040;SDS011;2539;52.568;13.364;2023-06-22T04:04:36;13.87;;;11.47;;
5040;SDS011;2539;52.568;13.364;2023-06-22T04:07:04;13.10;;;10.73;;
5040;SDS011;2539;52.568;13.364;2023-06-22T04:09:31;15.30;;;10.97;;
5040;SDS011;2539;52.568;13.364;2023-06-22T04:11:57;15.00;;;11.10;;
5040;SDS011;2539;52.568;13.364;2023-06-22T04:14:23;13.20;;;9.47;;
5040;SDS011;2539;52.568;13.364;2023-06-22T04:16:49;12.70;;;11.20;;
5040;SDS011;2539;52.568;13.364;2023-06-22T04:19:16;13.50;;;9.03;;
5040;SDS011;2539;52.568;13.364;2023-06-22T04:21:43;10.67;;;8.80;;
5040;SDS011;2539;52.568;13.364;2023-06-22T04:24:10;13.30;;;9.23;;
5040;SDS011;2539;52.568;13.364;2023-06-22T04:26:37;9.43;;;8.10;;
5040;SDS011;2539;52.568;13.364;2023-06-22T04:29:03;9.17;;;8.13;;
5040;SDS011;2539;52.568;13.364;2023-06-22T04:31:31;11.60;;;7.83;;
5040;SDS011;2539;52.568;13.364;2023-06-22T04:34:02;10.63;;;9.03;;
5040;SDS011;2539;52.568;13.364;2023-06-22T04:36:36;10.10;;;8.13;;
5040;SDS011;2539;52.568;13.364;2023-06-22T04:39:04;16.90;;;7.93;;
5040;SDS011;2539;52.568;13.364;2023-06-22T04:41:32;8.50;;;7.50;;
5040;SDS011;2539;52.568;13.364;2023-06-22T04:44:08;8.30;;;7.50;;
5040;SDS011;2539;52.568;13.364;2023-06-22T04:46:37;7.73;;;6.90;;
5040;SDS011;2539;52.568;13.364;2023-06-22T04:49:07;7.93;;;7.13;;
5040;SDS011;2539;52.568;13.364;2023-06-22T04:51:37;10.50;;;7.27;;
5040;SDS011;2539;52.568;13.364;2023-06-22T04:54:04;9.77;;;8.30;;
5040;SDS011;2539;52.568;13.364;2023-06-22T04:56:31;12.53;;;10.53;;
5040;SDS011;2539;52.568;13.364;2023-06-22T04:58:58;9.53;;;8.40;;
5040;SDS011;2539;52.568;13.364;2023-06-22T05:01:25;8.67;;;7.77;;
5040;SDS011;2539;52.568;13.364;2023-06-22T05:03:51;7.80;;;6.77;;
5040;SDS011;2539;52.568;13.364;2023-06-22T05:06:26;8.00;;;7.20;;
5040;SDS011;2539;52.568;13.364;2023-06-22T05:08:54;7.63;;;6.53;;
5040;SDS011;2539;52.568;13.364;2023-06-22T05:11:24;8.27;;;6.67;;
5040;SDS011;2539;52.568;13.364;2023-06-22T05:13:52;9.47;;;6.40;;
5040;SDS011;2539;52.568;13.364;2023-06-22T05:16:19;9.27;;;6.20;;
5040;SDS011;2539;52.568;13.364;2023-06-22T05:18:55;9.30;;;6.73;;
5040;SDS011;2539;52.568;13.364;2023-06-22T05:21:25;8.10;;;5.50;;
5040;SDS011;2539;52.568;13.364;2023-06-22T05:23:53;6.20;;;5.60;;
5040;SDS011;2539;52.568;13.364;2023-06-22T05:26:20;13.60;;;7.80;;
5040;SDS011;2539;52.568;13.364;2023-06-22T05:28:47;6.83;;;5.87;;
5040;SDS011;2539;52.568;13.364;2023-06-22T05:31:13;5.07;;;4.20;;
5040;SDS011;2539;52.568;13.364;2023-06-22T05:33:41;5.63;;;4.20;;
5040;SDS011;2539;52.568;13.364;2023-06-22T05:36:08;5.63;;;4.40;;
5040;SDS011;2539;52.568;13.364;2023-06-22T05:38:36;6.30;;;4.27;;
5040;SDS011;2539;52.568;13.364;2023-06-22T05:41:02;5.70;;;4.20;;
5040;SDS011;2539;52.568;13.364;2023-06-22T05:43:28;4.07;;;3.77;;
5040;SDS011;2539;52.568;13.364;2023-06-22T05:45:55;8.03;;;4.60;;
5040;SDS011;2539;52.568;13.364;2023-06-22T05:48:20;7.80;;;3.83;;
5040;SDS011;2539;52.568;13.364;2023-06-22T05:50:46;6.20;;;3.93;;
5040;SDS011;2539;52.568;13.364;2023-06-22T05:53:12;7.93;;;3.70;;
5040;SDS011;2539;52.568;13.364;2023-06-22T05:55:37;4.60;;;3.60;;
5040;SDS011;2539;52.568;13.364;2023-06-22T05:58:04;6.23;;;3.67;;
5040;SDS011;2539;52.568;13.364;2023-06-22T06:00:30;4.17;;;3.37;;
5040;SDS011;2539;52.568;13.364;2023-06-22T06:02:56;4.70;;;3.10;;
5040;SDS011;2539;52.568;13.364;2023-06-22T06:05:22;12.83;;;4.60;;
5040;SDS011;2539;52.568;13.364;2023-06-22T06:07:51;5.50;;;3.70;;
5040;SDS011;2539;52.568;13.364;2023-06-22T06:10:17;4.10;;;3.37;;
5040;SDS011;2539;52.568;13.364;2023-06-22T06:12:44;3.97;;;3.57;;
5040;SDS011;2539;52.568;13.364;2023-06-22T06:15:10;7.80;;;3.33;;
5040;SDS011;2539;52.568;13.364;2023-06-22T06:17:44;4.60;;;3.47;;
5040;SDS011;2539;52.568;13.364;2023-06-22T06:20:11;3.63;;;3.03;;
5040;SDS011;2539;52.568;13.364;2023-06-22T06:22:38;5.07;;;3.10;;
5040;SDS011;2539;52.568;13.364;2023-06-22T06:25:04;4.23;;;2.90;;
5040;SDS011;2539;52.568;13.364;2023-06-22T06:27:30;5.57;;;3.30;;
5040;SDS011;2539;52.568;13.364;2023-06-22T06:29:57;4.93;;;2.90;;
5040;SDS011;2539;52.568;13.364;2023-06-22T06:32:23;8.13;;;3.10;;
5040;SDS011;2539;52.568;13.364;2023-06-22T06:34:49;8.37;;;4.27;;
5040;SDS011;2539;52.568;13.364;2023-06-22T06:37:16;4.90;;;3.20;;
5040;SDS011;2539;52.568;13.364;2023-06-22T06:39:42;3.83;;;3.37;;
5040;SDS011;2539;52.568;13.364;2023-06-22T06:42:09;5.10;;;3.27;;
5040;SDS011;2539;52.568;13.364;2023-06-22T06:44:36;5.10;;;2.90;;
5040;SDS011;2539;52.568;13.364;2023-06-22T06:47:04;5.43;;;2.97;;
5040;SDS011;2539;52.568;13.364;2023-06-22T06:49:30;3.70;;;3.30;;
5040;SDS011;2539;52.568;13.364;2023-06-22T06:51:56;9.83;;;5.00;;
5040;SDS011;2539;52.568;13.364;2023-06-22T06:54:22;5.30;;;4.80;;
5040;SDS011;2539;52.568;13.364;2023-06-22T06:56:49;4.53;;;3.40;;
5040;SDS011;2539;52.568;13.364;2023-06-22T06:59:15;4.10;;;3.17;;
5040;SDS011;2539;52.568;13.364;2023-06-22T07:01:42;3.40;;;2.80;;
5040;SDS011;2539;52.568;13.364;2023-06-22T07:04:10;4.77;;;3.57;;
5040;SDS011;2539;52.568;13.364;2023-06-22T07:06:36;3.27;;;2.87;;
5040;SDS011;2539;52.568;13.364;2023-06-22T07:09:03;4.07;;;3.67;;
5040;SDS011;2539;52.568;13.364;2023-06-22T07:11:30;3.70;;;3.30;;
5040;SDS011;2539;52.568;13.364;2023-06-22T07:13:56;5.30;;;3.97;;
5040;SDS011;2539;52.568;13.364;2023-06-22T07:16:22;3.80;;;2.77;;
5040;SDS011;2539;52.568;13.364;2023-06-22T07:18:49;3.90;;;2.63;;
5040;SDS011;2539;52.568;13.364;2023-06-22T07:21:15;10.05;;;3.30;;
5040;SDS011;2539;52.568;13.364;2023-06-22T07:23:41;4.07;;;2.38;;
5040;SDS011;2539;52.568;13.364;2023-06-22T07:26:08;6.88;;;3.15;;
5040;SDS011;2539;52.568;13.364;2023-06-22T07:28:34;4.45;;;3.03;;
5040;SDS011;2539;52.568;13.364;2023-06-22T07:31:03;3.42;;;2.80;;
5040;SDS011;2539;52.568;13.364;2023-06-22T07:33:30;3.72;;;2.90;;
5040;SDS011;2539;52.568;13.364;2023-06-22T07:35:56;7.43;;;2.25;;
5040;SDS011;2539;52.568;13.364;2023-06-22T07:38:22;8.13;;;2.60;;
5040;SDS011;2539;52.568;13.364;2023-06-22T07:40:49;3.17;;;2.88;;
5040;SDS011;2539;52.568;13.364;2023-06-22T07:43:16;7.75;;;6.45;;
5040;SDS011;2539;52.568;13.364;2023-06-22T07:45:47;3.17;;;2.40;;
5040;SDS011;2539;52.568;13.364;2023-06-22T07:48:17;4.78;;;2.88;;
5040;SDS011;2539;52.568;13.364;2023-06-22T07:50:46;5.53;;;2.55;;
5040;SDS011;2539;52.568;13.364;2023-06-22T07:53:12;3.17;;;1.98;;
5040;SDS011;2539;52.568;13.364;2023-06-22T07:55:38;5.90;;;2.03;;
5040;SDS011;2539;52.568;13.364;2023-06-22T07:58:04;3.38;;;2.38;;
5040;SDS011;2539;52.568;13.364;2023-06-22T08:00:30;3.15;;;2.10;;
5040;SDS011;2539;52.568;13.364;2023-06-22T08:02:59;2.88;;;2.20;;
5040;SDS011;2539;52.568;13.364;2023-06-22T08:05:25;3.92;;;3.30;;
5040;SDS011;2539;52.568;13.364;2023-06-22T08:07:51;2.92;;;2.55;;
5040;SDS011;2539;52.568;13.364;2023-06-22T08:10:19;5.75;;;2.67;;
5040;SDS011;2539;52.568;13.364;2023-06-22T08:12:45;2.85;;;2.25;;
5040;SDS011;2539;52.568;13.364;2023-06-22T08:15:11;2.80;;;2.50;;
5040;SDS011;2539;52.568;13.364;2023-06-22T08:17:38;2.60;;;2.20;;
5040;SDS011;2539;52.568;13.364;2023-06-22T08:20:05;3.35;;;2.45;;
5040;SDS011;2539;52.568;13.364;2023-06-22T08:22:36;3.30;;;2.20;;
5040;SDS011;2539;52.568;13.364;2023-06-22T08:25:03;3.53;;;1.90;;
5040;SDS011;2539;52.568;13.364;2023-06-22T08:27:30;2.78;;;2.28;;
5040;SDS011;2539;52.568;13.364;2023-06-22T08:29:59;2.60;;;2.30;;
5040;SDS011;2539;52.568;13.364;2023-06-22T08:32:26;3.00;;;2.47;;
5040;SDS011;2539;52.568;13.364;2023-06-22T08:34:57;5.05;;;2.38;;
5040;SDS011;2539;52.568;13.364;2023-06-22T08:37:23;3.00;;;2.67;;
5040;SDS011;2539;52.568;13.364;2023-06-22T08:39:50;5.13;;;3.90;;
5040;SDS011;2539;52.568;13.364;2023-06-22T08:42:17;5.20;;;2.38;;
5040;SDS011;2539;52.568;13.364;2023-06-22T08:44:43;3.10;;;2.20;;
5040;SDS011;2539;52.568;13.364;2023-06-22T08:47:09;4.47;;;2.40;;
5040;SDS011;2539;52.568;13.364;2023-06-22T08:49:35;3.00;;;2.13;;
5040;SDS011;2539;52.568;13.364;2023-06-22T08:52:02;3.55;;;3.00;;
5040;SDS011;2539;52.568;13.364;2023-06-22T08:54:28;5.60;;;2.95;;
5040;SDS011;2539;52.568;13.364;2023-06-22T08:56:54;4.07;;;2.55;;
5040;SDS011;2539;52.568;13.364;2023-06-22T08:59:20;3.28;;;2.38;;
5040;SDS011;2539;52.568;13.364;2023-06-22T09:01:47;4.18;;;2.97;;
5040;SDS011;2539;52.568;13.364;2023-06-22T09:04:14;3.83;;;2.25;;
5040;SDS011;2539;52.568;13.364;2023-06-22T09:06:40;3.83;;;2.22;;
5040;SDS011;2539;52.568;13.364;2023-06-22T09:09:11;4.90;;;2.60;;
5040;SDS011;2539;52.568;13.364;2023-06-22T09:11:38;4.97;;;2.72;;
5040;SDS011;2539;52.568;13.364;2023-06-22T09:14:04;4.88;;;2.72;;
5040;SDS011;2539;52.568;13.364;2023-06-22T09:16:31;3.53;;;2.40;;
5040;SDS011;2539;52.568;13.364;2023-06-22T09:18:57;4.43;;;2.72;;
5040;SDS011;2539;52.568;13.364;2023-06-22T09:21:23;4.13;;;2.58;;
5040;SDS011;2539;52.568;13.364;2023-06-22T09:23:50;2.90;;;2.38;;
5040;SDS011;2539;52.568;13.364;2023-06-22T09:26:17;4.57;;;2.50;;
5040;SDS011;2539;52.568;13.364;2023-06-22T09:28:44;3.10;;;2.60;;
5040;SDS011;2539;52.568;13.364;2023-06-22T09:31:10;3.30;;;2.60;;
5040;SDS011;2539;52.568;13.364;2023-06-22T09:33:37;5.13;;;3.08;;
5040;SDS011;2539;52.568;13.364;2023-06-22T09:36:04;4.80;;;2.70;;
5040;SDS011;2539;52.568;13.364;2023-06-22T09:38:38;7.03;;;2.80;;
5040;SDS011;2539;52.568;13.364;2023-06-22T09:41:05;6.20;;;2.88;;
5040;SDS011;2539;52.568;13.364;2023-06-22T09:43:31;3.65;;;2.60;;
5040;SDS011;2539;52.568;13.364;2023-06-22T09:45:58;4.47;;;2.60;;
5040;SDS011;2539;52.568;13.364;2023-06-22T09:48:24;2.80;;;2.30;;
5040;SDS011;2539;52.568;13.364;2023-06-22T09:50:51;6.10;;;2.70;;
5040;SDS011;2539;52.568;13.364;2023-06-22T09:53:17;4.45;;;3.38;;
5040;SDS011;2539;52.568;13.364;2023-06-22T09:55:43;5.93;;;2.85;;
5040;SDS011;2539;52.568;13.364;2023-06-22T09:58:10;4.50;;;2.88;;
5040;SDS011;2539;52.568;13.364;2023-06-22T10:00:36;5.38;;;2.53;;
5040;SDS011;2539;52.568;13.364;2023-06-22T10:03:02;3.67;;;3.22;;
5040;SDS011;2539;52.568;13.364;2023-06-22T10:05:28;5.25;;;3.03;;
5040;SDS011;2539;52.568;13.364;2023-06-22T10:07:55;3.85;;;2.95;;
5040;SDS011;2539;52.568;13.364;2023-06-22T10:10:21;3.35;;;2.72;;
5040;SDS011;2539;52.568;13.364;2023-06-22T10:12:48;4.60;;;2.80;;
5040;SDS011;2539;52.568;13.364;2023-06-22T10:15:21;2.75;;;2.40;;
5040;SDS011;2539;52.568;13.364;2023-06-22T10:17:47;3.13;;;2.63;;
5040;SDS011;2539;52.568;13.364;2023-06-22T10:20:14;3.50;;;2.83;;
5040;SDS011;2539;52.568;13.364;2023-06-22T10:22:41;6.15;;;2.95;;
5040;SDS011;2539;52.568;13.364;2023-06-22T10:25:10;3.22;;;2.92;;
5040;SDS011;2539;52.568;13.364;2023-06-22T10:27:38;3.90;;;3.50;;
5040;SDS011;2539;52.568;13.364;2023-06-22T10:30:08;5.05;;;2.97;;
5040;SDS011;2539;52.568;13.364;2023-06-22T10:32:34;5.13;;;2.80;;
5040;SDS011;2539;52.568;13.364;2023-06-22T10:35:01;3.53;;;2.83;;
5040;SDS011;2539;52.568;13.364;2023-06-22T10:37:28;3.08;;;2.30;;
5040;SDS011;2539;52.568;13.364;2023-06-22T10:39:54;3.83;;;2.78;;
5040;SDS011;2539;52.568;13.364;2023-06-22T10:42:20;4.72;;;2.88;;
5040;SDS011;2539;52.568;13.364;2023-06-22T10:44:47;4.57;;;2.60;;
5040;SDS011;2539;52.568;13.364;2023-06-22T10:47:13;4.68;;;2.80;;
5040;SDS011;2539;52.568;13.364;2023-06-22T10:49:40;5.50;;;3.65;;
5040;SDS011;2539;52.568;13.364;2023-06-22T10:52:07;3.78;;;3.40;;
5040;SDS011;2539;52.568;13.364;2023-06-22T10:54:34;4.50;;;2.97;;
5040;SDS011;2539;52.568;13.364;2023-06-22T10:57:01;3.72;;;3.10;;
5040;SDS011;2539;52.568;13.364;2023-06-22T10:59:28;3.13;;;2.83;;
5040;SDS011;2539;52.568;13.364;2023-06-22T11:01:55;3.67;;;2.83;;
5040;SDS011;2539;52.568;13.364;2023-06-22T11:04:22;4.00;;;2.75;;
5040;SDS011;2539;52.568;13.364;2023-06-22T11:06:48;5.05;;;3.28;;
5040;SDS011;2539;52.568;13.364;2023-06-22T11:09:15;5.22;;;3.10;;
5040;SDS011;2539;52.568;13.364;2023-06-22T11:11:49;3.00;;;2.65;;
5040;SDS011;2539;52.568;13.364;2023-06-22T11:14:19;3.50;;;3.10;;
5040;SDS011;2539;52.568;13.364;2023-06-22T11:16:45;3.35;;;2.75;;
5040;SDS011;2539;52.568;13.364;2023-06-22T11:19:14;3.60;;;2.97;;
5040;SDS011;2539;52.568;13.364;2023-06-22T11:21:41;3.45;;;2.63;;
5040;SDS011;2539;52.568;13.364;2023-06-22T11:24:07;3.75;;;2.97;;
5040;SDS011;2539;52.568;13.364;2023-06-22T11:26:36;3.38;;;2.97;;
5040;SDS011;2539;52.568;13.364;2023-06-22T11:29:03;6.60;;;2.97;;
5040;SDS011;2539;52.568;13.364;2023-06-22T11:31:32;3.90;;;3.00;;
5040;SDS011;2539;52.568;13.364;2023-06-22T11:33:59;3.22;;;2.92;;
5040;SDS011;2539;52.568;13.364;2023-06-22T11:36:26;3.47;;;2.83;;
5040;SDS011;2539;52.568;13.364;2023-06-22T11:38:52;3.53;;;3.17;;
5040;SDS011;2539;52.568;13.364;2023-06-22T11:41:19;4.55;;;3.63;;
5040;SDS011;2539;52.568;13.364;2023-06-22T11:43:45;4.65;;;2.72;;
5040;SDS011;2539;52.568;13.364;2023-06-22T11:46:11;3.40;;;3.08;;
5040;SDS011;2539;52.568;13.364;2023-06-22T11:48:37;3.88;;;3.20;;
5040;SDS011;2539;52.568;13.364;2023-06-22T11:51:03;3.35;;;3.05;;
5040;SDS011;2539;52.568;13.364;2023-06-22T11:53:29;3.10;;;2.65;;
5040;SDS011;2539;52.568;13.364;2023-06-22T11:55:55;3.60;;;3.30;;
5040;SDS011;2539;52.568;13.364;2023-06-22T11:58:24;4.13;;;3.20;;
5040;SDS011;2539;52.568;13.364;2023-06-22T12:00:50;4.88;;;3.85;;
5040;SDS011;2539;52.568;13.364;2023-06-22T12:03:17;4.13;;;3.50;;
5040;SDS011;2539;52.568;13.364;2023-06-22T12:05:43;3.25;;;2.75;;
5040;SDS011;2539;52.568;13.364;2023-06-22T12:08:08;3.38;;;3.08;;
5040;SDS011;2539;52.568;13.364;2023-06-22T12:10:35;3.97;;;2.80;;
5040;SDS011;2539;52.568;13.364;2023-06-22T12:13:01;4.00;;;2.95;;
5040;SDS011;2539;52.568;13.364;2023-06-22T12:15:27;4.25;;;3.00;;
5040;SDS011;2539;52.568;13.364;2023-06-22T12:17:54;3.28;;;2.60;;
5040;SDS011;2539;52.568;13.364;2023-06-22T12:20:20;3.00;;;2.40;;
5040;SDS011;2539;52.568;13.364;2023-06-22T12:22:46;3.00;;;2.70;;
5040;SDS011;2539;52.568;13.364;2023-06-22T12:25:13;4.20;;;3.20;;
5040;SDS011;2539;52.568;13.364;2023-06-22T12:27:39;3.63;;;3.22;;
5040;SDS011;2539;52.568;13.364;2023-06-22T12:30:05;5.55;;;3.67;;
5040;SDS011;2539;52.568;13.364;2023-06-22T12:32:32;4.57;;;3.28;;
5040;SDS011;2539;52.568;13.364;2023-06-22T12:34:58;4.45;;;2.90;;
5040;SDS011;2539;52.568;13.364;2023-06-22T12:37:25;3.42;;;2.67;;
5040;SDS011;2539;52.568;13.364;2023-06-22T12:39:52;3.65;;;3.10;;
5040;SDS011;2539;52.568;13.364;2023-06-22T12:42:20;3.85;;;3.25;;
5040;SDS011;2539;52.568;13.364;2023-06-22T12:44:46;5.80;;;2.67;;
5040;SDS011;2539;52.568;13.364;2023-06-22T12:47:12;6.13;;;5.53;;
5040;SDS011;2539;52.568;13.364;2023-06-22T12:49:39;3.42;;;3.13;;
5040;SDS011;2539;52.568;13.364;2023-06-22T12:52:09;4.75;;;2.88;;
5040;SDS011;2539;52.568;13.364;2023-06-22T12:54:37;5.55;;;2.80;;
5040;SDS011;2539;52.568;13.364;2023-06-22T12:57:03;3.92;;;3.22;;
5040;SDS011;2539;52.568;13.364;2023-06-22T12:59:29;3.78;;;2.70;;
5040;SDS011;2539;52.568;13.364;2023-06-22T13:01:56;3.50;;;3.03;;
5040;SDS011;2539;52.568;13.364;2023-06-22T13:04:22;4.65;;;4.18;;
5040;SDS011;2539;52.568;13.364;2023-06-22T13:06:48;4.07;;;3.67;;
5040;SDS011;2539;52.568;13.364;2023-06-22T13:09:15;4.68;;;3.80;;
5040;SDS011;2539;52.568;13.364;2023-06-22T13:11:43;4.85;;;3.38;;
5040;SDS011;2539;52.568;13.364;2023-06-22T13:14:09;7.88;;;4.97;;
5040;SDS011;2539;52.568;13.364;2023-06-22T13:16:35;5.60;;;3.22;;
5040;SDS011;2539;52.568;13.364;2023-06-22T13:19:01;3.53;;;3.22;;
5040;SDS011;2539;52.568;13.364;2023-06-22T13:21:28;4.15;;;3.70;;
5040;SDS011;2539;52.568;13.364;2023-06-22T13:23:55;5.05;;;3.97;;
5040;SDS011;2539;52.568;13.364;2023-06-22T13:26:21;3.85;;;3.30;;
5040;SDS011;2539;52.568;13.364;2023-06-22T13:28:48;6.18;;;3.90;;
5040;SDS011;2539;52.568;13.364;2023-06-22T13:31:14;7.78;;;3.33;;
5040;SDS011;2539;52.568;13.364;2023-06-22T13:33:40;4.38;;;3.65;;
5040;SDS011;2539;52.568;13.364;2023-06-22T13:36:07;5.03;;;3.53;;
5040;SDS011;2539;52.568;13.364;2023-06-22T13:38:36;4.10;;;3.70;;
5040;SDS011;2539;52.568;13.364;2023-06-22T13:41:04;4.57;;;3.90;;
5040;SDS011;2539;52.568;13.364;2023-06-22T13:43:31;7.50;;;3.90;;
5040;SDS011;2539;52.568;13.364;2023-06-22T13:45:57;4.60;;;3.90;;
5040;SDS011;2539;52.568;13.364;2023-06-22T13:48:24;5.05;;;3.72;;
5040;SDS011;2539;52.568;13.364;2023-06-22T13:50:52;4.25;;;3.85;;
5040;SDS011;2539;52.568;13.364;2023-06-22T13:53:19;4.13;;;3.35;;
5040;SDS011;2539;52.568;13.364;2023-06-22T13:55:46;4.00;;;3.60;;
5040;SDS011;2539;52.568;13.364;2023-06-22T13:58:13;4.65;;;4.25;;
5040;SDS011;2539;52.568;13.364;2023-06-22T14:00:39;4.43;;;3.53;;
5040;SDS011;2539;52.568;13.364;2023-06-22T14:03:06;6.88;;;3.83;;
5040;SDS011;2539;52.568;13.364;2023-06-22T14:05:32;5.72;;;5.22;;
5040;SDS011;2539;52.568;13.364;2023-06-22T14:07:58;4.50;;;4.10;;
5040;SDS011;2539;52.568;13.364;2023-06-22T14:10:25;5.75;;;4.18;;
5040;SDS011;2539;52.568;13.364;2023-06-22T14:12:51;4.95;;;3.85;;
5040;SDS011;2539;52.568;13.364;2023-06-22T14:15:19;4.57;;;4.18;;
5040;SDS011;2539;52.568;13.364;2023-06-22T14:17:45;4.43;;;3.70;;
5040;SDS011;2539;52.568;13.364;2023-06-22T14:20:11;4.20;;;3.80;;
5040;SDS011;2539;52.568;13.364;2023-06-22T14:22:37;6.78;;;4.10;;
5040;SDS011;2539;52.568;13.364;2023-06-22T14:25:05;4.18;;;3.78;;
5040;SDS011;2539;52.568;13.364;2023-06-22T14:27:31;4.28;;;3.67;;
5040;SDS011;2539;52.568;13.364;2023-06-22T14:29:58;9.07;;;4.43;;
5040;SDS011;2539;52.568;13.364;2023-06-22T14:32:24;3.97;;;3.58;;
5040;SDS011;2539;52.568;13.364;2023-06-22T14:34:51;4.32;;;3.88;;
5040;SDS011;2539;52.568;13.364;2023-06-22T14:37:16;4.70;;;3.70;;
5040;SDS011;2539;52.568;13.364;2023-06-22T14:39:42;6.65;;;4.18;;
5040;SDS011;2539;52.568;13.364;2023-06-22T14:42:08;5.00;;;4.00;;
5040;SDS011;2539;52.568;13.364;2023-06-22T14:44:34;5.07;;;3.78;;
5040;SDS011;2539;52.568;13.364;2023-06-22T14:47:00;3.70;;;3.40;;
5040;SDS011;2539;52.568;13.364;2023-06-22T14:49:27;4.15;;;3.47;;
5040;SDS011;2539;52.568;13.364;2023-06-22T14:51:53;6.78;;;3.70;;
5040;SDS011;2539;52.568;13.364;2023-06-22T14:54:19;5.13;;;3.85;;
5040;SDS011;2539;52.568;13.364;2023-06-22T14:56:47;3.40;;;3.10;;
5040;SDS011;2539;52.568;13.364;2023-06-22T14:59:14;4.15;;;3.67;;